Thunder radar more information blitzortung!


Radar de pluja more information rain snow radar


Visita la nostra xarxa de llocs de meteo:

Template documentation
and downloads

And another site



No particular awareness of the weather is required.    There are no Weather-warnings

Pagina Historial Weather Underground text

Diari Resum May 18, 2017 Unitats:  Mètric    Imperial   Tant
« Previous Dia
SegĂźent Dia »
Diari Setmana Mensual Anual Personalitzada
  Maxima: Minima: Media:
Temperatura: 26.5 °C 10.0 °C 18 °C
Punt de rosada: 13.1 °C 4.3 °C 9.9 °C
Humitat: 78 % 40 % 61 %
Wind Speed: 22.2 km/h 0.0 km/h 6.9 km/h
RĂ fegues de vent: 22.2 km/h - -
Vent:- - SSW
Pression baro: 1018.8 hPa 1010.7 hPa -
Precipitacions: 1.3 mm    
Historical Graphs
 
 
Dades de taula per May 18, 2017
Temps Temperatura Punt de rosada Pression baro Vent Wind Speed RĂ fegues de vent Humitat Rainfall Rate (Hourly)
00:03 18.5 °C 6.9 °C 1015.8 hPa SW 1.9 km/h 1.9 km/h 47 % 0.0 mm
00:05 14.0 °C 7.3 °C 1014.8 hPa Calm   1.6 km/h 64 % 0.0 mm
00:08 18.5 °C 6.9 °C 1015.8 hPa SW 1.9 km/h   47 % 0.0 mm
00:13 18.4 °C 7.2 °C 1015.8 hPa Calm     48 % 0.0 mm
00:15 13.7 °C 7.0 °C 1013.8 hPa Calm   1.6 km/h 64 % 0.0 mm
00:18 18.3 °C 7.1 °C 1015.8 hPa Calm     48 % 0.0 mm
00:23 18.2 °C 7.3 °C 1015.8 hPa SW 1.9 km/h   49 % 0.0 mm
00:25 13.6 °C 6.9 °C 1014.8 hPa Calm     64 % 0.0 mm
00:28 18.1 °C 7.2 °C 1015.8 hPa Calm     49 % 0.0 mm
00:33 18.0 °C 7.4 °C 1015.8 hPa Calm     50 % 0.0 mm
00:35 13.5 °C 6.8 °C 1014.8 hPa Calm     64 % 0.0 mm
00:38 18.0 °C 7.4 °C 1015.8 hPa Calm     50 % 0.0 mm
00:45 13.5 °C 6.8 °C 1014.8 hPa Calm     64 % 0.0 mm
00:55 13.5 °C 7.1 °C 1014.8 hPa Calm     65 % 0.0 mm
01:05 13.6 °C 6.9 °C 1014.8 hPa SW 1.6 km/h 3.2 km/h 64 % 0.0 mm
01:15 13.6 °C 6.9 °C 1014.8 hPa WSW 1.6 km/h 3.2 km/h 64 % 0.0 mm
01:25 13.2 °C 6.6 °C 1014.8 hPa SW 1.6 km/h 3.2 km/h 64 % 0.0 mm
01:35 13.1 °C 6.7 °C 1014.8 hPa Calm   1.6 km/h 65 % 0.0 mm
01:45 13.0 °C 6.8 °C 1014.8 hPa Calm   3.2 km/h 66 % 0.0 mm
01:55 13.0 °C 6.8 °C 1014.8 hPa Calm   3.2 km/h 66 % 0.0 mm
02:05 13.2 °C 7.0 °C 1014.8 hPa SSE 1.6 km/h 3.2 km/h 66 % 0.0 mm
02:15 13.6 °C 7.4 °C 1014.8 hPa Calm   1.6 km/h 66 % 0.0 mm
02:25 13.9 °C 7.4 °C 1014.8 hPa SSW 3.2 km/h 3.2 km/h 65 % 0.0 mm
02:35 14.0 °C 7.3 °C 1014.8 hPa SW 3.2 km/h 3.2 km/h 64 % 0.0 mm
02:55 14.5 °C 7.8 °C 1014.8 hPa SW 3.2 km/h 3.2 km/h 64 % 0.0 mm
03:05 14.7 °C 7.9 °C 1014.8 hPa Calm   3.2 km/h 64 % 0.0 mm
03:15 15.1 °C 8.1 °C 1014.8 hPa SW 1.6 km/h 3.2 km/h 63 % 0.0 mm
03:25 16.1 °C 8.6 °C 1014.8 hPa SW 3.2 km/h 4.8 km/h 61 % 0.0 mm
03:35 16.6 °C 8.8 °C 1014.8 hPa ENE 3.2 km/h 4.8 km/h 60 % 0.0 mm
03:45 17.3 °C 8.9 °C 1014.8 hPa NE 1.6 km/h 4.8 km/h 58 % 0.0 mm
03:55 17.8 °C 8.9 °C 1014.8 hPa NE 3.2 km/h 4.8 km/h 56 % 0.0 mm
04:05 18.5 °C 9.3 °C 1014.8 hPa NE 1.6 km/h 4.8 km/h 55 % 0.0 mm
04:15 18.5 °C 9.0 °C 1015.8 hPa Calm   4.8 km/h 54 % 0.0 mm
04:25 18.1 °C 8.7 °C 1015.8 hPa NE 3.2 km/h 4.8 km/h 54 % 0.0 mm
04:35 18.2 °C 8.7 °C 1015.8 hPa NE 1.6 km/h 3.2 km/h 54 % 0.0 mm
04:45 18.9 °C 9.4 °C 1014.8 hPa ENE 4.8 km/h 6.4 km/h 54 % 0.0 mm
04:55 19.0 °C 9.2 °C 1015.8 hPa NE 4.8 km/h 6.4 km/h 53 % 0.0 mm
05:10 19.9 °C 10.1 °C 1015.8 hPa ENE 4.8 km/h 8.0 km/h 53 % 0.0 mm
05:20 20.1 °C 10.2 °C 1015.8 hPa ENE 8.0 km/h 9.7 km/h 53 % 0.0 mm
05:30 20.2 °C 10.3 °C 1014.8 hPa ENE 9.7 km/h 9.7 km/h 53 % 0.0 mm
05:40 20.1 °C 10.2 °C 1014.8 hPa ESE 8.0 km/h 8.0 km/h 53 % 0.0 mm
10:44 20.3 °C 10.7 °C 1014.8 hPa East 5.6 km/h 6.4 km/h 54 % 0.0 mm
10:45 20.3 °C 10.7 °C 1014.8 hPa East 5.6 km/h 6.4 km/h 54 % 0.0 mm
10:46 20.4 °C 10.5 °C 1014.8 hPa ENE 9.3 km/h 9.3 km/h 53 % 0.0 mm
10:51 20.6 °C 10.9 °C 1014.8 hPa ESE 10.0 km/h 10.0 km/h 54 % 0.0 mm
10:56 20.9 °C 11.2 °C 1014.8 hPa East 7.6 km/h 7.6 km/h 54 % 0.0 mm
11:01 21.1 °C 11.4 °C 1014.8 hPa SE 11.1 km/h 11.1 km/h 54 % 0.0 mm
11:06 21.7 °C 11.7 °C 1014.8 hPa SE 9.3 km/h 9.3 km/h 53 % 0.0 mm
11:11 21.8 °C 11.8 °C 1014.8 hPa ESE 9.3 km/h 9.3 km/h 53 % 0.0 mm
11:12 21.8 °C 11.8 °C 1014.8 hPa SE 9.0 km/h 9.0 km/h 53 % 0.0 mm
11:17 21.8 °C 12.1 °C 1014.8 hPa WSW 7.6 km/h 7.6 km/h 54 % 0.0 mm
11:22 22.1 °C 12.1 °C 1014.8 hPa NNE 7.9 km/h 7.9 km/h 53 % 0.0 mm
11:27 22.0 °C 12.0 °C 1014.8 hPa East 9.3 km/h 9.3 km/h 53 % 0.0 mm
11:32 22.0 °C 12.0 °C 1014.8 hPa SSE 7.4 km/h 7.4 km/h 53 % 0.0 mm
11:37 22.4 °C 12.3 °C 1014.8 hPa SE 9.3 km/h 9.3 km/h 53 % 0.0 mm
11:42 22.4 °C 12.3 °C 1013.8 hPa ENE 13.0 km/h 13.0 km/h 53 % 0.0 mm
11:47 22.6 °C 12.6 °C 1013.8 hPa ENE 9.5 km/h 9.5 km/h 53 % 0.0 mm
11:52 22.5 °C 12.4 °C 1013.8 hPa ESE 9.3 km/h 9.3 km/h 53 % 0.0 mm
11:57 22.8 °C 12.7 °C 1014.8 hPa SSE 11.1 km/h 11.1 km/h 53 % 0.0 mm
12:02 22.8 °C 12.7 °C 1014.8 hPa ENE 13.0 km/h 13.0 km/h 53 % 0.0 mm
12:07 22.5 °C 12.2 °C 1014.8 hPa ESE 9.3 km/h 9.5 km/h 52 % 0.0 mm
12:12 22.8 °C 12.4 °C 1013.8 hPa ESE 11.1 km/h 11.1 km/h 52 % 0.0 mm
12:15 23.0 °C 12.3 °C 1013.8 hPa SE 13.0 km/h 13.0 km/h 51 % 0.0 mm
12:20 22.9 °C 12.5 °C 1013.8 hPa ESE 9.5 km/h 9.5 km/h 52 % 0.0 mm
12:25 22.8 °C 12.4 °C 1013.8 hPa East 9.5 km/h 9.5 km/h 52 % 0.0 mm
12:30 23.1 °C 11.8 °C 1013.8 hPa ENE 9.3 km/h 9.3 km/h 49 % 0.0 mm
12:35 23.1 °C 11.2 °C 1013.8 hPa ESE 20.4 km/h 20.4 km/h 47 % 0.0 mm
12:40 23.3 °C 11.7 °C 1013.8 hPa ENE 11.9 km/h 11.9 km/h 48 % 0.0 mm
12:45 23.4 °C 11.1 °C 1013.8 hPa SE 15.8 km/h 15.8 km/h 46 % 0.0 mm
12:50 24.0 °C 11.3 °C 1013.8 hPa SSE 9.3 km/h 9.3 km/h 45 % 0.0 mm
12:55 23.7 °C 11.4 °C 1012.8 hPa North 13.0 km/h 13.0 km/h 46 % 0.0 mm
13:00 23.6 °C 11.3 °C 1012.8 hPa ESE 20.4 km/h 20.4 km/h 46 % 0.0 mm
13:05 23.5 °C 10.6 °C 1012.8 hPa NE 16.7 km/h 16.7 km/h 44 % 0.0 mm
13:10 23.7 °C 11.1 °C 1011.7 hPa North 10.0 km/h 10.0 km/h 45 % 0.0 mm
13:15 24.1 °C 11.4 °C 1011.7 hPa SE 16.1 km/h 16.1 km/h 45 % 0.0 mm
13:20 24.0 °C 11.3 °C 1011.7 hPa ENE 18.5 km/h 18.5 km/h 45 % 0.0 mm
13:25 24.2 °C 11.2 °C 1010.7 hPa East 11.1 km/h 11.1 km/h 44 % 0.0 mm
13:30 24.3 °C 10.9 °C 1010.7 hPa SSW 11.1 km/h 11.1 km/h 43 % 0.0 mm
13:35 24.2 °C 11.2 °C 1010.7 hPa North 18.5 km/h 18.5 km/h 44 % 0.0 mm
13:40 24.1 °C 11.4 °C 1011.7 hPa NNE 9.3 km/h 9.3 km/h 45 % 0.0 mm
13:45 24.3 °C 11.6 °C 1011.7 hPa ENE 13.7 km/h 13.7 km/h 45 % 0.0 mm
13:50 23.9 °C 11.6 °C 1011.7 hPa NE 9.3 km/h 9.3 km/h 46 % 0.0 mm
13:55 23.7 °C 11.4 °C 1011.7 hPa ESE 13.0 km/h 13.0 km/h 46 % 0.0 mm
14:00 23.6 °C 11.3 °C 1011.7 hPa East 11.1 km/h 11.1 km/h 46 % 0.0 mm
14:05 23.5 °C 11.2 °C 1011.7 hPa East 15.8 km/h 15.8 km/h 46 % 0.0 mm
14:10 24.0 °C 11.7 °C 1011.7 hPa ENE 13.0 km/h 13.0 km/h 46 % 0.0 mm
14:15 23.7 °C 11.7 °C 1011.7 hPa NE 14.8 km/h 14.8 km/h 47 % 0.0 mm
14:20 23.7 °C 11.7 °C 1011.7 hPa ENE 11.1 km/h 11.1 km/h 47 % 0.0 mm
14:25 23.6 °C 11.9 °C 1010.7 hPa ESE 7.9 km/h 7.9 km/h 48 % 0.0 mm
14:30 24.2 °C 12.8 °C 1010.7 hPa WNW 13.0 km/h 13.0 km/h 49 % 0.0 mm
14:35 24.2 °C 12.8 °C 1010.7 hPa ESE 13.0 km/h 13.0 km/h 49 % 0.0 mm
14:40 24.3 °C 12.9 °C 1011.7 hPa ESE 10.3 km/h 10.3 km/h 49 % 0.0 mm
14:45 24.2 °C 12.8 °C 1011.7 hPa ESE 11.1 km/h 11.1 km/h 49 % 0.0 mm
14:50 24.3 °C 12.9 °C 1011.7 hPa SE 9.3 km/h 9.3 km/h 49 % 0.0 mm
14:55 24.8 °C 13.1 °C 1011.7 hPa SW 5.6 km/h 5.6 km/h 48 % 0.0 mm
15:00 25.6 °C 12.4 °C 1011.7 hPa SSW 7.9 km/h 7.9 km/h 44 % 0.0 mm
15:05 25.7 °C 12.6 °C 1011.7 hPa SW 5.6 km/h 5.6 km/h 44 % 0.0 mm
15:10 26.2 °C 12.6 °C 1011.7 hPa SW 11.1 km/h 11.1 km/h 43 % 0.0 mm
15:15 26.2 °C 12.3 °C 1011.7 hPa WNW 9.3 km/h 9.3 km/h 42 % 0.0 mm
15:20 26.5 °C 12.6 °C 1011.7 hPa SSW 9.5 km/h 9.5 km/h 42 % 0.0 mm
15:25 26.0 °C 11.7 °C 1010.7 hPa South 16.7 km/h 16.7 km/h 41 % 0.0 mm
15:30 26.0 °C 11.7 °C 1010.7 hPa SW 14.8 km/h 14.8 km/h 41 % 0.0 mm
15:35 26.0 °C 11.3 °C 1010.7 hPa SSW 14.8 km/h 14.8 km/h 40 % 0.0 mm
15:40 25.8 °C 11.2 °C 1010.7 hPa SE 9.3 km/h 9.3 km/h 40 % 0.0 mm
15:45 25.8 °C 11.6 °C 1010.7 hPa SW 7.4 km/h 7.4 km/h 41 % 0.0 mm
15:50 26.0 °C 11.7 °C 1010.7 hPa WSW 5.6 km/h 5.6 km/h 41 % 0.0 mm
15:55 26.0 °C 11.3 °C 1010.7 hPa SSW 16.7 km/h 16.7 km/h 40 % 0.0 mm
15:57 25.4 °C 10.8 °C 1010.7 hPa SW 14.8 km/h 14.8 km/h 40 % 0.0 mm
16:02 25.3 °C 11.1 °C 1010.7 hPa SW 11.1 km/h 11.1 km/h 41 % 0.0 mm
16:07 25.0 °C 10.4 °C 1010.7 hPa SW 5.6 km/h 5.6 km/h 40 % 0.0 mm
16:12 25.0 °C 10.4 °C 1010.7 hPa SSW 16.9 km/h 16.9 km/h 40 % 0.0 mm
16:17 24.8 °C 10.7 °C 1010.7 hPa SSW 11.1 km/h 11.1 km/h 41 % 0.0 mm
16:22 24.5 °C 10.4 °C 1010.7 hPa WNW 14.8 km/h 14.8 km/h 41 % 0.0 mm
16:27 23.1 °C 10.2 °C 1011.7 hPa WNW 20.4 km/h 20.4 km/h 44 % 0.0 mm
16:32 22.6 °C 10.4 °C 1011.7 hPa SSW 14.8 km/h 14.8 km/h 46 % 0.0 mm
16:37 22.3 °C 10.4 °C 1011.7 hPa WNW 14.8 km/h 14.8 km/h 47 % 0.0 mm
16:42 21.9 °C 10.4 °C 1011.7 hPa NNW 20.4 km/h 20.4 km/h 48 % 0.0 mm
16:47 21.3 °C 10.2 °C 1011.7 hPa West 22.2 km/h 22.2 km/h 49 % 0.0 mm
16:52 20.5 °C 10.6 °C 1011.7 hPa East 20.4 km/h 20.4 km/h 53 % 0.0 mm
16:57 19.6 °C 10.8 °C 1011.7 hPa West 9.3 km/h 9.3 km/h 57 % 0.0 mm
17:02 19.1 °C 10.9 °C 1011.7 hPa WSW 9.3 km/h 9.3 km/h 59 % 0.0 mm
17:07 18.6 °C 11.2 °C 1011.7 hPa WSW 11.1 km/h 11.1 km/h 62 % 0.0 mm
17:12 18.5 °C 11.1 °C 1011.7 hPa WSW 7.4 km/h 7.4 km/h 62 % 0.0 mm
17:17 18.7 °C 11.3 °C 1011.7 hPa West 16.7 km/h 16.7 km/h 62 % 0.0 mm
17:22 18.6 °C 11.4 °C 1011.7 hPa WSW 13.0 km/h 13.0 km/h 63 % 0.0 mm
17:27 18.5 °C 11.1 °C 1011.7 hPa West 11.1 km/h 11.1 km/h 62 % 0.0 mm
17:32 18.3 °C 11.1 °C 1011.7 hPa WSW 9.3 km/h 9.3 km/h 63 % 0.0 mm
17:37 18.1 °C 10.9 °C 1011.7 hPa West 9.3 km/h 9.3 km/h 63 % 0.0 mm
17:42 18.0 °C 10.8 °C 1011.7 hPa WSW 9.3 km/h 9.3 km/h 63 % 0.0 mm
17:47 17.6 °C 10.4 °C 1011.7 hPa SW 7.4 km/h 7.4 km/h 63 % 0.0 mm
17:52 17.2 °C 10.3 °C 1011.7 hPa SW 13.0 km/h 13.0 km/h 64 % 0.0 mm
17:57 17.2 °C 10.6 °C 1011.7 hPa WSW 9.3 km/h 9.3 km/h 65 % 0.0 mm
18:02 17.2 °C 11.0 °C 1011.7 hPa WSW 7.4 km/h 7.4 km/h 67 % 0.0 mm
18:07 17.0 °C 10.8 °C 1011.7 hPa WSW 7.4 km/h 7.4 km/h 67 % 0.0 mm
18:12 17.0 °C 11.1 °C 1011.7 hPa WSW 9.3 km/h 9.3 km/h 68 % 0.0 mm
18:17 17.0 °C 11.1 °C 1011.7 hPa SW 7.4 km/h 7.4 km/h 68 % 0.0 mm
18:22 17.0 °C 11.1 °C 1011.7 hPa West 9.3 km/h 9.3 km/h 68 % 0.0 mm
18:27 16.9 °C 11.4 °C 1011.7 hPa SW 5.6 km/h 5.6 km/h 70 % 0.0 mm
18:32 16.8 °C 11.5 °C 1011.7 hPa West 5.0 km/h 5.0 km/h 71 % 0.0 mm
18:37 16.7 °C 11.2 °C 1011.7 hPa SW 9.0 km/h 9.0 km/h 70 % 0.0 mm
18:42 16.7 °C 11.4 °C 1012.8 hPa SW 4.7 km/h 4.7 km/h 71 % 0.0 mm
18:47 16.6 °C 11.3 °C 1012.8 hPa SW 6.1 km/h 6.1 km/h 71 % 0.0 mm
18:52 16.6 °C 11.3 °C 1012.8 hPa SW 5.6 km/h 5.6 km/h 71 % 0.0 mm
18:57 16.7 °C 11.4 °C 1012.8 hPa WSW 7.4 km/h 7.4 km/h 71 % 0.0 mm
19:02 16.8 °C 11.9 °C 1012.8 hPa SW 1.9 km/h 1.9 km/h 73 % 0.0 mm
19:07 16.9 °C 11.8 °C 1012.8 hPa WSW 5.6 km/h 5.6 km/h 72 % 0.0 mm
19:12 16.9 °C 11.8 °C 1013.8 hPa SW 3.9 km/h 3.9 km/h 72 % 0.0 mm
19:17 16.8 °C 11.3 °C 1013.8 hPa WNW 5.6 km/h 5.6 km/h 70 % 0.0 mm
19:20 12.9 °C 7.3 °C 1015.8 hPa West 4.8 km/h 8.0 km/h 69 % 1.3 mm
19:22 16.9 °C 11.6 °C 1013.8 hPa West 3.7 km/h 3.7 km/h 71 % 0.0 mm
19:27 17.0 °C 11.5 °C 1012.8 hPa West 3.7 km/h 3.7 km/h 70 % 0.0 mm
19:30 12.7 °C 7.2 °C 1015.8 hPa West 3.2 km/h 3.2 km/h 69 % 1.3 mm
19:32 17.0 °C 11.5 °C 1012.8 hPa WSW 3.7 km/h 3.7 km/h 70 % 0.0 mm
19:37 17.0 °C 11.7 °C 1012.8 hPa SW 2.6 km/h   71 % 0.0 mm
19:40 12.6 °C 7.1 °C 1015.8 hPa Calm   4.8 km/h 69 % 0.0 mm
19:42 16.9 °C 12.0 °C 1012.8 hPa SW 3.7 km/h 3.7 km/h 73 % 0.0 mm
19:47 16.7 °C 11.6 °C 1012.8 hPa WSW 3.7 km/h 3.7 km/h 72 % 0.0 mm
19:50 12.5 °C 6.8 °C 1015.8 hPa West 1.6 km/h 3.2 km/h 68 % 0.0 mm
19:52 16.7 °C 12.1 °C 1012.8 hPa NW 2.6 km/h 2.6 km/h 74 % 0.0 mm
19:57 16.6 °C 11.9 °C 1012.8 hPa Calm     74 % 0.0 mm
20:00 12.3 °C 6.6 °C 1015.8 hPa West 4.8 km/h 4.8 km/h 68 % 0.0 mm
20:02 16.6 °C 11.9 °C 1012.8 hPa North 5.6 km/h 5.6 km/h 74 % 0.0 mm
20:07 16.6 °C 12.2 °C 1012.8 hPa East 1.9 km/h   75 % 0.0 mm
20:10 12.2 °C 6.4 °C 1016.8 hPa West 3.2 km/h 4.8 km/h 68 % 0.0 mm
20:12 16.6 °C 11.9 °C 1011.7 hPa NNE 3.7 km/h   74 % 0.0 mm
20:13 16.6 °C 12.2 °C 1011.7 hPa North 3.7 km/h 3.7 km/h 75 % 0.0 mm
20:18 16.5 °C 12.1 °C 1011.7 hPa West 3.7 km/h 3.7 km/h 75 % 0.0 mm
20:20 12.1 °C 6.2 °C 1016.8 hPa WSW 1.6 km/h 4.8 km/h 67 % 0.0 mm
20:23 16.6 °C 12.3 °C 1011.7 hPa WSW 3.5 km/h   76 % 0.0 mm
20:28 16.4 °C 12.3 °C 1011.7 hPa SW 1.9 km/h   77 % 0.0 mm
20:30 12.0 °C 6.1 °C 1016.8 hPa Calm   3.2 km/h 67 % 0.0 mm
20:33 16.1 °C 11.9 °C 1011.7 hPa WSW 4.7 km/h 4.7 km/h 76 % 0.0 mm
20:38 15.9 °C 11.7 °C 1013.8 hPa WSW 4.7 km/h 4.7 km/h 76 % 0.0 mm
20:40 11.8 °C 5.9 °C 1016.8 hPa WSW 3.2 km/h 4.8 km/h 67 % 0.0 mm
20:43 15.8 °C 11.6 °C 1013.8 hPa SW 4.2 km/h 4.2 km/h 76 % 0.0 mm
20:48 15.8 °C 11.8 °C 1013.8 hPa WSW 3.7 km/h 3.7 km/h 77 % 0.0 mm
20:50 11.4 °C 5.7 °C 1016.8 hPa WSW 3.2 km/h 4.8 km/h 68 % 0.0 mm
20:53 15.8 °C 11.8 °C 1013.8 hPa West 3.7 km/h 3.7 km/h 77 % 0.0 mm
20:58 15.9 °C 11.9 °C 1013.8 hPa West 3.7 km/h 3.7 km/h 77 % 0.0 mm
21:00 11.5 °C 5.6 °C 1016.8 hPa WSW 3.2 km/h 4.8 km/h 67 % 0.0 mm
21:03 15.9 °C 12.1 °C 1013.8 hPa SSW 3.7 km/h 3.7 km/h 78 % 0.0 mm
21:08 15.9 °C 12.1 °C 1013.8 hPa WSW 5.6 km/h 5.6 km/h 78 % 0.0 mm
21:10 11.4 °C 5.7 °C 1016.8 hPa Calm   3.2 km/h 68 % 0.0 mm
21:13 15.8 °C 11.8 °C 1013.8 hPa SW 7.4 km/h 7.4 km/h 77 % 0.0 mm
21:18 15.6 °C 11.4 °C 1013.8 hPa WSW 9.3 km/h 9.3 km/h 76 % 0.0 mm
21:20 11.2 °C 5.5 °C 1016.8 hPa WSW 1.6 km/h 3.2 km/h 68 % 0.0 mm
21:23 15.6 °C 11.4 °C 1013.8 hPa West 5.6 km/h 5.6 km/h 76 % 0.0 mm
21:28 15.6 °C 11.4 °C 1013.8 hPa NW 7.4 km/h 7.4 km/h 76 % 0.0 mm
21:30 10.9 °C 5.0 °C 1015.8 hPa WSW 4.8 km/h 4.8 km/h 67 % 0.0 mm
21:33 15.5 °C 11.3 °C 1013.8 hPa WSW 9.7 km/h 9.7 km/h 76 % 0.0 mm
21:38 15.4 °C 11.2 °C 1013.8 hPa WSW 9.0 km/h 9.0 km/h 76 % 0.0 mm
21:40 10.7 °C 5.1 °C 1015.8 hPa WSW 3.2 km/h 4.8 km/h 68 % 0.0 mm
21:43 15.3 °C 11.1 °C 1013.8 hPa WSW 7.4 km/h 7.4 km/h 76 % 0.0 mm
21:48 15.2 °C 10.8 °C 1013.8 hPa WSW 9.3 km/h 9.3 km/h 75 % 0.0 mm
21:53 15.0 °C 10.8 °C 1013.8 hPa SW 15.6 km/h 15.6 km/h 76 % 0.0 mm
21:58 14.9 °C 10.5 °C 1013.8 hPa WSW 8.7 km/h 8.7 km/h 75 % 1.3 mm
22:00 10.7 °C 4.8 °C 1016.8 hPa West 1.6 km/h 6.4 km/h 67 % 0.0 mm
22:03 14.7 °C 10.3 °C 1013.8 hPa West 11.1 km/h 11.1 km/h 75 % 1.3 mm
22:08 14.6 °C 10.4 °C 1013.8 hPa SW 5.8 km/h 5.8 km/h 76 % 1.3 mm
22:10 10.6 °C 4.9 °C 1016.8 hPa WSW 1.6 km/h 3.2 km/h 68 % 0.0 mm
22:13 14.5 °C 10.3 °C 1013.8 hPa SW 5.0 km/h 5.0 km/h 76 % 1.3 mm
22:18 14.4 °C 10.0 °C 1013.8 hPa WSW 7.6 km/h 7.6 km/h 75 % 1.3 mm
22:20 10.6 °C 4.9 °C 1016.8 hPa Calm   3.2 km/h 68 % 0.0 mm
22:23 14.3 °C 9.9 °C 1013.8 hPa West 5.6 km/h 5.6 km/h 75 % 1.3 mm
22:28 14.2 °C 9.8 °C 1013.8 hPa WSW 7.4 km/h 7.4 km/h 75 % 1.3 mm
22:30 10.3 °C 4.7 °C 1017.8 hPa ENE 3.2 km/h 4.8 km/h 68 % 0.0 mm
22:33 14.2 °C 9.8 °C 1013.8 hPa WSW 7.4 km/h 7.4 km/h 75 % 1.3 mm
22:38 14.1 °C 9.9 °C 1014.8 hPa SW 7.4 km/h 7.4 km/h 76 % 1.3 mm
22:40 10.3 °C 4.7 °C 1017.8 hPa WSW 3.2 km/h 4.8 km/h 68 % 0.0 mm
22:43 14.0 °C 9.6 °C 1014.8 hPa WSW 3.9 km/h 3.9 km/h 75 % 1.3 mm
22:48 13.9 °C 9.6 °C 1014.8 hPa NW 5.6 km/h 5.6 km/h 75 % 1.3 mm
22:50 10.2 °C 4.6 °C 1017.8 hPa Calm   4.8 km/h 68 % 0.0 mm
22:53 13.9 °C 9.6 °C 1015.8 hPa West 3.7 km/h 3.9 km/h 75 % 1.3 mm
22:58 13.9 °C 9.3 °C 1015.8 hPa West 5.6 km/h 5.6 km/h 74 % 0.0 mm
23:00 10.2 °C 4.6 °C 1017.8 hPa WSW 1.6 km/h 3.2 km/h 68 % 0.0 mm
23:03 13.8 °C 9.2 °C 1015.8 hPa NNW 3.7 km/h 3.7 km/h 74 % 0.0 mm
23:09 13.8 °C 9.2 °C 1015.8 hPa WNW 5.6 km/h 5.6 km/h 74 % 0.0 mm
23:10 10.2 °C 4.6 °C 1017.8 hPa West 1.6 km/h 3.2 km/h 68 % 0.0 mm
23:14 13.7 °C 8.9 °C 1015.8 hPa SW 9.3 km/h 9.3 km/h 73 % 0.0 mm
23:19 13.7 °C 8.9 °C 1015.8 hPa West 5.6 km/h 5.6 km/h 73 % 0.0 mm
23:20 10.0 °C 4.3 °C 1017.8 hPa SW 1.6 km/h 3.2 km/h 68 % 0.0 mm
23:24 13.6 °C 8.7 °C 1015.8 hPa WSW 6.9 km/h 6.9 km/h 72 % 0.0 mm
23:29 13.5 °C 8.6 °C 1015.8 hPa WNW 5.6 km/h 5.6 km/h 72 % 0.0 mm
23:30 10.0 °C 4.3 °C 1018.8 hPa SW 3.2 km/h 3.2 km/h 68 % 0.0 mm
23:34 13.4 °C 8.4 °C 1015.8 hPa West 3.7 km/h 3.7 km/h 72 % 0.0 mm
23:39 13.3 °C 8.3 °C 1015.8 hPa SW 3.7 km/h 3.7 km/h 72 % 0.0 mm
23:40 10.0 °C 4.6 °C 1016.8 hPa Calm   3.2 km/h 69 % 0.0 mm
23:44 13.2 °C 8.1 °C 1015.8 hPa WSW 7.4 km/h 7.4 km/h 71 % 0.0 mm
23:49 13.2 °C 8.1 °C 1015.8 hPa West 3.7 km/h 3.7 km/h 71 % 0.0 mm
23:50 10.1 °C 4.7 °C 1016.8 hPa NNW 3.2 km/h 4.8 km/h 69 % 0.0 mm
23:54 13.1 °C 7.7 °C 1015.8 hPa SW 3.7 km/h 3.7 km/h 70 % 0.0 mm
23:59 13.0 °C 7.9 °C 1015.8 hPa West 3.2 km/h   71 % 0.0 mm
Meteo Sesrovires
Elogis d' Weather Underground - 3.75 mb

Guio original per  Jim McMurry - jmcmurry@mwt.net Adaptat per a la plantilla per  Wim van der Kuil - Leuven-Template.eu

Trobareu la nostra informacio del temps tambe a:

Weather Underground

AWEKAS